VHBVM YMEN-YCEM
Flight info
| Callsign | VHBVM |
|---|---|
| Flight time | N/A |
| Altitude | 3500 |
| Route | VFR |
| Aircraft | PA28/L-V/N |
Departure
| Time | N/A |
|---|---|
| Airport | Melbourne Essendon Airport (YMEN) |
Arrival
| Time | 2026-04-26 06:29 |
|---|---|
| Airport | Coldstream Airport (YCEM) |
| Time | Latitude | Longitude | Altitude | Speed | Heading |
|---|---|---|---|---|---|
| 2026-04-26 06:28 | -37.72508 | 145.40863 | 273 ft | 0 kts | 92° |
| 2026-04-26 06:31 | -37.72507 | 145.40871 | 273 ft | 3 kts | 61° |
| 2026-04-26 06:31 | -37.72467 | 145.40873 | 273 ft | 8 kts | 349° |
| 2026-04-26 06:31 | -37.72445 | 145.40842 | 273 ft | 5 kts | 342° |
| 2026-04-26 06:31 | -37.72405 | 145.40832 | 276 ft | 5 kts | 316° |
| 2026-04-26 06:32 | -37.72404 | 145.40830 | 276 ft | 0 kts | 301° |
| 2026-04-26 06:32 | -37.72403 | 145.40830 | 276 ft | 1 kts | 303° |
| 2026-04-26 06:32 | -37.72409 | 145.40799 | 272 ft | 3 kts | 193° |
| 2026-04-26 06:33 | -37.72561 | 145.40809 | 273 ft | 49 kts | 176° |
| 2026-04-26 06:33 | -37.73067 | 145.40854 | 320 ft | 89 kts | 177° |
| 2026-04-26 06:33 | -37.73706 | 145.40898 | 531 ft | 94 kts | 179° |
| 2026-04-26 06:33 | -37.74346 | 145.40947 | 821 ft | 92 kts | 176° |
| 2026-04-26 06:34 | -37.74978 | 145.41014 | 1065 ft | 93 kts | 178° |
| 2026-04-26 06:34 | -37.75634 | 145.41058 | 1251 ft | 99 kts | 179° |
| 2026-04-26 06:34 | -37.76329 | 145.41108 | 1500 ft | 98 kts | 178° |
| 2026-04-26 06:34 | -37.77025 | 145.41135 | 1680 ft | 101 kts | 181° |
| 2026-04-26 06:35 | -37.77744 | 145.41147 | 1851 ft | 104 kts | 182° |
| 2026-04-26 06:35 | -37.78445 | 145.41127 | 2078 ft | 102 kts | 186° |
| 2026-04-26 06:35 | -37.79164 | 145.41068 | 2228 ft | 105 kts | 189° |
| 2026-04-26 06:35 | -37.79868 | 145.41001 | 2446 ft | 104 kts | 188° |
| 2026-04-26 06:36 | -37.80617 | 145.40913 | 2510 ft | 114 kts | 192° |
| 2026-04-26 06:36 | -37.81418 | 145.40785 | 2621 ft | 116 kts | 197° |
| 2026-04-26 06:36 | -37.82220 | 145.40571 | 2680 ft | 121 kts | 201° |
| 2026-04-26 06:36 | -37.83044 | 145.40347 | 2769 ft | 120 kts | 197° |
| 2026-04-26 06:37 | -37.83887 | 145.40267 | 2755 ft | 125 kts | 191° |
| 2026-04-26 06:37 | -37.84749 | 145.40262 | 2783 ft | 124 kts | 179° |
| 2026-04-26 06:37 | -37.85608 | 145.40417 | 2762 ft | 124 kts | 173° |
| 2026-04-26 06:37 | -37.86436 | 145.40682 | 2837 ft | 122 kts | 170° |
| 2026-04-26 06:38 | -37.87286 | 145.40932 | 2819 ft | 128 kts | 172° |
| 2026-04-26 06:38 | -37.88135 | 145.41175 | 2936 ft | 120 kts | 174° |
| 2026-04-26 06:38 | -37.89169 | 145.41446 | 2893 ft | 130 kts | 174° |
| 2026-04-26 06:39 | -37.90055 | 145.41618 | 2920 ft | 131 kts | 177° |
| 2026-04-26 06:39 | -37.90964 | 145.41816 | 3002 ft | 131 kts | 172° |
| 2026-04-26 06:39 | -37.91842 | 145.42158 | 3007 ft | 133 kts | 165° |
| 2026-04-26 06:39 | -37.92741 | 145.42486 | 2991 ft | 133 kts | 168° |
| 2026-04-26 06:40 | -37.93629 | 145.42805 | 3025 ft | 133 kts | 168° |
| 2026-04-26 06:40 | -37.94530 | 145.43074 | 3020 ft | 132 kts | 174° |
| 2026-04-26 06:40 | -37.95428 | 145.43283 | 3009 ft | 130 kts | 177° |
| 2026-04-26 06:40 | -37.96334 | 145.43431 | 2964 ft | 132 kts | 178° |
| 2026-04-26 06:41 | -37.97239 | 145.43601 | 2930 ft | 132 kts | 178° |
| 2026-04-26 06:41 | -37.98160 | 145.43746 | 2893 ft | 134 kts | 181° |
| 2026-04-26 06:41 | -37.99085 | 145.43860 | 2742 ft | 136 kts | 179° |
| 2026-04-26 06:41 | -38.00010 | 145.44011 | 2749 ft | 130 kts | 176° |
| 2026-04-26 06:42 | -38.00914 | 145.44197 | 2592 ft | 134 kts | 177° |
| 2026-04-26 06:42 | -38.01834 | 145.44351 | 2487 ft | 130 kts | 178° |
| 2026-04-26 06:42 | -38.02721 | 145.44484 | 2444 ft | 127 kts | 180° |
| 2026-04-26 06:42 | -38.03597 | 145.44569 | 2368 ft | 124 kts | 185° |
| 2026-04-26 06:43 | -38.04472 | 145.44631 | 2252 ft | 123 kts | 182° |
| 2026-04-26 06:43 | -38.05322 | 145.44695 | 2243 ft | 123 kts | 183° |
| 2026-04-26 06:43 | -38.06187 | 145.44743 | 2204 ft | 124 kts | 181° |
| 2026-04-26 06:43 | -38.07044 | 145.44871 | 2135 ft | 125 kts | 176° |
| 2026-04-26 06:44 | -38.07897 | 145.45091 | 2052 ft | 125 kts | 172° |
| 2026-04-26 06:44 | -38.08739 | 145.45327 | 1989 ft | 122 kts | 173° |
| 2026-04-26 06:44 | -38.09561 | 145.45523 | 1926 ft | 119 kts | 174° |
| 2026-04-26 06:44 | -38.10390 | 145.45701 | 1801 ft | 120 kts | 175° |
| 2026-04-26 06:45 | -38.11196 | 145.45861 | 1735 ft | 115 kts | 175° |
| 2026-04-26 06:45 | -38.11984 | 145.46022 | 1647 ft | 115 kts | 171° |
| 2026-04-26 06:45 | -38.12759 | 145.46212 | 1615 ft | 113 kts | 167° |
| 2026-04-26 06:45 | -38.13529 | 145.46407 | 1555 ft | 113 kts | 169° |
| 2026-04-26 06:46 | -38.14300 | 145.46574 | 1480 ft | 113 kts | 170° |
| 2026-04-26 06:46 | -38.15085 | 145.46734 | 1432 ft | 114 kts | 169° |
| 2026-04-26 06:46 | -38.15600 | 145.46838 | 1373 ft | 113 kts | 171° |
| 2026-04-26 06:46 | -38.16606 | 145.47097 | 1265 ft | 108 kts | 168° |
| 2026-04-26 06:47 | -38.17322 | 145.47219 | 1152 ft | 102 kts | 177° |
| 2026-04-26 06:47 | -38.18011 | 145.47132 | 1045 ft | 101 kts | 193° |
| 2026-04-26 06:47 | -38.18674 | 145.46894 | 961 ft | 95 kts | 207° |
| 2026-04-26 06:47 | -38.19237 | 145.46503 | 799 ft | 92 kts | 216° |
| 2026-04-26 06:48 | -38.19670 | 145.45968 | 731 ft | 81 kts | 234° |
| 2026-04-26 06:48 | -38.20014 | 145.45376 | 627 ft | 84 kts | 246° |
| 2026-04-26 06:48 | -38.20210 | 145.44948 | 536 ft | 87 kts | 245° |
| 2026-04-26 06:48 | -38.20518 | 145.44311 | 501 ft | 82 kts | 243° |
| 2026-04-26 06:49 | -38.20823 | 145.43689 | 367 ft | 82 kts | 236° |
| 2026-04-26 06:49 | -38.21146 | 145.43126 | 162 ft | 75 kts | 236° |
| 2026-04-26 06:49 | -38.21416 | 145.42628 | 13 ft | 59 kts | 236° |
| 2026-04-26 06:49 | -38.21602 | 145.42280 | 10 ft | 32 kts | 237° |
| 2026-04-26 06:50 | -38.21676 | 145.42139 | 9 ft | 12 kts | 237° |
| 2026-04-26 06:50 | -38.21640 | 145.42110 | 8 ft | 9 kts | 53° |
| 2026-04-26 06:50 | -38.21603 | 145.42179 | 9 ft | 10 kts | 52° |
| 2026-04-26 06:50 | -38.21564 | 145.42242 | 10 ft | 9 kts | 54° |
| 2026-04-26 06:51 | -38.21530 | 145.42303 | 11 ft | 8 kts | 54° |
| 2026-04-26 06:51 | -38.21491 | 145.42334 | 11 ft | 2 kts | 273° |
| 2026-04-26 06:51 | -38.21491 | 145.42332 | 11 ft | 0 kts | 273° |